createdAt,value
2017-10-30T01:35:58.763Z,7.47
2017-10-30T01:35:59.337Z,7.49
2017-10-30T01:35:59.937Z,7.53
2017-10-30T01:36:00.535Z,7.53
2017-10-30T01:36:01.146Z,7.42
2017-10-30T01:36:01.740Z,7.52
2017-10-30T01:36:02.336Z,7.53
2017-10-30T01:36:55.806Z,7.41
2017-10-30T01:36:56.375Z,7.47
2017-10-30T01:36:56.979Z,7.44
2017-10-30T01:36:57.575Z,7.41
2017-10-30T01:36:58.176Z,7.47
2017-10-30T01:36:58.777Z,7.42
2017-10-30T01:36:59.372Z,7.47
2017-10-30T01:38:12.917Z,7.35
2017-10-30T01:38:13.487Z,7.32
2017-10-30T01:38:14.081Z,7.40
2017-10-30T01:38:14.682Z,7.42
2017-10-30T01:38:15.300Z,7.40
2017-10-30T01:38:15.882Z,7.37
2017-10-30T01:38:16.484Z,7.42
2017-10-30T01:39:30.943Z,7.29
2017-10-30T01:39:31.512Z,7.35
2017-10-30T01:39:32.118Z,7.37
2017-10-30T01:39:32.717Z,7.37
2017-10-30T01:39:33.316Z,7.34
2017-10-30T01:39:33.910Z,7.34
2017-10-30T01:39:34.509Z,7.40
2017-10-30T01:39:35.111Z,7.32
2017-10-30T01:40:29.612Z,7.34
2017-10-30T01:40:30.188Z,7.35
2017-10-30T01:40:30.788Z,7.37
2017-10-30T01:40:31.387Z,7.26
2017-10-30T01:40:31.986Z,7.37
2017-10-30T01:40:32.587Z,7.34
2017-10-30T01:40:33.187Z,7.35
2017-10-30T01:40:33.786Z,7.34
2017-10-30T01:41:27.280Z,7.35
2017-10-30T01:41:27.844Z,7.32
2017-10-30T01:41:28.441Z,7.35
2017-10-30T01:41:29.042Z,7.37
2017-10-30T01:41:29.641Z,7.35
2017-10-30T01:41:30.240Z,7.34
2017-10-30T01:41:30.840Z,7.35
2017-10-30T01:41:31.438Z,7.29
2017-10-30T01:42:27.988Z,7.32
2017-10-30T01:42:28.566Z,7.35
2017-10-30T01:42:29.163Z,7.32
2017-10-30T01:43:23.190Z,7.37
2017-10-30T01:43:23.782Z,7.35
2017-10-30T01:43:24.360Z,7.34
2017-10-30T01:43:24.959Z,7.38
2017-10-30T01:43:25.558Z,7.34
2017-10-30T01:43:26.164Z,7.31
2017-10-30T01:43:26.762Z,7.34
2017-10-30T01:44:20.734Z,7.32
2017-10-30T01:44:21.307Z,7.32
2017-10-30T01:44:21.908Z,7.34
2017-10-30T01:44:22.506Z,7.31
2017-10-30T01:44:23.112Z,7.31
2017-10-30T01:44:23.711Z,7.31
2017-10-30T01:44:24.332Z,7.31
2017-10-30T01:45:38.147Z,7.29
2017-10-30T01:45:38.722Z,7.32
2017-10-30T01:45:39.323Z,7.34
2017-10-30T01:45:39.922Z,7.31
2017-10-30T01:45:40.521Z,7.32
2017-10-30T01:45:41.123Z,7.31
2017-10-30T01:45:41.722Z,7.37
2017-10-30T01:45:42.322Z,7.35
2017-10-30T01:46:35.809Z,7.31
2017-10-30T01:46:36.376Z,7.32
2017-10-30T01:46:36.974Z,7.41
2017-10-30T01:46:37.574Z,7.35
2017-10-30T01:46:38.174Z,7.37
2017-10-30T01:46:38.774Z,7.32
2017-10-30T01:46:39.379Z,7.38
2017-10-30T01:46:39.974Z,7.31
2017-10-30T01:47:34.488Z,7.32
2017-10-30T01:47:35.049Z,7.41
2017-10-30T01:47:35.650Z,7.42
2017-10-30T01:47:36.251Z,7.40
2017-10-30T01:47:36.854Z,7.42
2017-10-30T01:47:37.448Z,7.42
2017-10-30T01:47:38.053Z,7.41
2017-10-30T01:47:38.651Z,7.41
2017-10-30T01:48:32.130Z,7.37
2017-10-30T01:48:32.713Z,7.42
2017-10-30T01:48:33.303Z,7.44
2017-10-30T01:48:33.902Z,7.49
2017-10-30T01:48:34.503Z,7.41
2017-10-30T01:48:35.109Z,7.44
2017-10-30T01:48:35.703Z,7.40
2017-10-30T01:48:36.308Z,7.44
2017-10-30T01:49:29.785Z,7.41
2017-10-30T01:49:30.357Z,7.41
2017-10-30T01:49:30.955Z,7.41
2017-10-30T01:49:31.558Z,7.38
2017-10-30T01:49:32.159Z,7.44
2017-10-30T01:49:32.759Z,7.42
2017-10-30T01:49:33.353Z,7.45
2017-10-30T01:49:33.956Z,7.41
2017-10-30T01:50:32.455Z,7.47
2017-10-30T01:50:33.028Z,7.49
2017-10-30T01:50:33.621Z,7.45
2017-10-30T01:50:34.226Z,7.47
2017-10-30T01:50:34.822Z,7.50
2017-10-30T01:50:35.420Z,7.55
2017-10-30T01:50:36.028Z,7.53
2017-10-30T01:50:36.625Z,7.49
2017-10-30T01:50:37.221Z,7.53
2017-10-30T01:50:37.820Z,7.55
2017-10-30T01:50:38.420Z,7.37
2017-10-30T01:50:39.019Z,7.55
2017-10-30T01:50:39.618Z,7.38
2017-10-30T01:50:40.218Z,7.35
2017-10-30T01:50:40.821Z,7.55
2017-10-30T01:50:41.420Z,7.53
2017-10-30T01:50:42.021Z,7.55
2017-10-30T01:51:36.551Z,7.56
2017-10-30T01:51:37.126Z,7.52
2017-10-30T01:51:37.725Z,7.50
2017-10-30T01:51:38.325Z,7.58
2017-10-30T01:51:38.929Z,7.56
2017-10-30T01:51:39.526Z,7.47
2017-10-30T01:51:40.126Z,7.52
2017-10-30T01:52:34.514Z,7.53
2017-10-30T01:52:35.089Z,7.55
2017-10-30T01:52:35.686Z,7.50
2017-10-30T01:52:36.285Z,7.53
2017-10-30T01:52:36.884Z,7.50
2017-10-30T01:52:37.486Z,7.53
2017-10-30T01:52:38.083Z,7.58
2017-10-30T01:52:38.686Z,7.53
2017-10-30T01:53:32.681Z,7.52
2017-10-30T01:53:33.259Z,7.50
2017-10-30T01:53:33.852Z,7.55
2017-10-30T01:53:34.448Z,7.53
2017-10-30T01:53:35.047Z,7.53
2017-10-30T01:53:35.652Z,7.55
2017-10-30T01:53:36.248Z,7.55
2017-10-30T01:54:30.224Z,7.49
2017-10-30T01:54:30.801Z,7.52
2017-10-30T01:54:31.398Z,7.55
2017-10-30T01:54:31.997Z,7.56
2017-10-30T01:54:32.597Z,7.53
2017-10-30T01:54:33.214Z,7.50
2017-10-30T01:54:33.800Z,7.50
2017-10-30T01:55:28.284Z,7.45
2017-10-30T01:55:28.861Z,7.56
2017-10-30T01:55:29.459Z,7.55
2017-10-30T01:55:30.060Z,7.50
2017-10-30T01:55:30.658Z,7.56
2017-10-30T01:55:31.257Z,7.52
2017-10-30T01:55:31.858Z,7.50
2017-10-30T01:55:32.459Z,7.52
2017-10-30T01:56:25.941Z,7.55
2017-10-30T01:56:26.513Z,7.50
2017-10-30T01:56:27.120Z,7.58
2017-10-30T01:56:27.713Z,7.55
2017-10-30T01:56:28.311Z,7.58
2017-10-30T01:56:28.912Z,7.56
2017-10-30T01:56:29.515Z,7.53
2017-10-30T01:56:30.113Z,7.56
2017-10-30T01:57:24.614Z,7.50
2017-10-30T01:57:25.188Z,7.49
2017-10-30T01:57:25.786Z,7.52
2017-10-30T01:57:26.392Z,7.55
2017-10-30T01:57:26.997Z,7.53
2017-10-30T01:57:27.594Z,7.53
2017-10-30T01:57:28.185Z,7.53
2017-10-30T01:57:28.786Z,7.56
2017-10-30T01:58:23.287Z,7.52
2017-10-30T01:58:23.862Z,7.55
2017-10-30T01:58:24.465Z,7.52
2017-10-30T01:58:25.063Z,7.50
2017-10-30T01:58:25.661Z,7.47
2017-10-30T01:58:26.261Z,7.56
2017-10-30T01:58:26.871Z,7.52
2017-10-30T01:58:27.464Z,7.55
2017-10-30T01:59:21.963Z,7.53
2017-10-30T01:59:22.538Z,7.55
2017-10-30T01:59:23.139Z,7.49
2017-10-30T01:59:23.737Z,7.50
2017-10-30T01:59:24.338Z,7.55
2017-10-30T01:59:24.937Z,7.55
2017-10-30T01:59:25.537Z,7.56
2017-10-30T01:59:26.137Z,7.56
2017-10-30T02:00:19.627Z,7.45
2017-10-30T02:00:20.199Z,7.56
2017-10-30T02:00:20.790Z,7.52
2017-10-30T02:00:21.390Z,7.49
2017-10-30T02:00:21.992Z,7.53
2017-10-30T02:00:22.595Z,7.53
2017-10-30T02:00:23.190Z,7.58
2017-10-30T02:00:23.791Z,7.52
2017-10-30T02:01:17.267Z,7.56
2017-10-30T02:01:17.842Z,7.58
2017-10-30T02:01:18.442Z,7.62
2017-10-30T02:01:19.057Z,7.55
2017-10-30T02:01:19.646Z,7.62
2017-10-30T02:01:20.246Z,7.56
2017-10-30T02:01:20.843Z,7.58
2017-10-30T02:01:21.441Z,7.60
2017-10-30T02:02:14.919Z,7.55
2017-10-30T02:02:15.493Z,7.58
2017-10-30T02:02:16.093Z,7.55
2017-10-30T02:02:16.693Z,7.58
2017-10-30T02:02:17.295Z,7.53
2017-10-30T02:02:17.900Z,7.55
2017-10-30T02:02:18.499Z,7.52
2017-10-30T02:02:19.093Z,7.63
2017-10-30T02:03:12.574Z,7.55
2017-10-30T02:03:13.145Z,7.49
2017-10-30T02:03:13.745Z,7.56
2017-10-30T02:03:14.346Z,7.49
2017-10-30T02:03:14.945Z,7.53
2017-10-30T02:03:15.544Z,7.56
2017-10-30T02:03:16.144Z,7.50
2017-10-30T02:03:16.744Z,7.56
2017-10-30T02:04:11.253Z,7.35
2017-10-30T02:04:11.826Z,7.50
2017-10-30T02:04:12.427Z,7.52
2017-10-30T02:04:13.026Z,7.59
2017-10-30T02:04:13.626Z,7.50
2017-10-30T02:04:14.227Z,7.50
2017-10-30T02:04:14.822Z,7.50
2017-10-30T02:04:15.419Z,7.50
2017-10-30T02:05:08.897Z,7.49
2017-10-30T02:05:09.473Z,7.44
2017-10-30T02:05:10.075Z,7.44
2017-10-30T02:05:10.675Z,7.56
2017-10-30T02:05:11.273Z,7.52
2017-10-30T02:05:11.878Z,7.55
2017-10-30T02:05:12.471Z,7.52
2017-10-30T02:05:13.079Z,7.53
2017-10-30T02:06:07.582Z,7.44
2017-10-30T02:06:08.148Z,7.41
2017-10-30T02:06:08.751Z,7.41
2017-10-30T02:06:09.353Z,7.41
2017-10-30T02:06:09.947Z,7.41
2017-10-30T02:06:10.548Z,7.41
2017-10-30T02:06:11.147Z,7.49
2017-10-30T02:06:11.747Z,7.42
2017-10-30T02:07:06.250Z,7.27
2017-10-30T02:07:06.828Z,7.42
2017-10-30T02:07:07.428Z,7.41
2017-10-30T02:07:08.023Z,7.32
2017-10-30T02:07:08.621Z,7.34
2017-10-30T02:07:09.221Z,7.35
2017-10-30T02:07:09.822Z,7.34
2017-10-30T02:07:10.425Z,7.37
2017-10-30T02:08:03.904Z,7.32
2017-10-30T02:08:04.481Z,7.35
2017-10-30T02:08:05.077Z,7.35
2017-10-30T02:08:05.685Z,7.37
2017-10-30T02:08:06.277Z,7.32
2017-10-30T02:08:06.876Z,7.37
2017-10-30T02:08:07.473Z,7.37
2017-10-30T02:08:08.074Z,7.32
2017-10-30T02:09:01.562Z,7.26
2017-10-30T02:09:03.104Z,7.26
2017-10-30T02:09:03.609Z,7.23
2017-10-30T02:09:04.203Z,7.24
2017-10-30T02:09:04.803Z,7.31
2017-10-30T02:09:05.404Z,7.22
2017-10-30T02:09:06.004Z,7.24
2017-10-30T02:10:00.544Z,7.17
2017-10-30T02:10:01.113Z,7.19
2017-10-30T02:10:01.720Z,7.20
2017-10-30T02:10:02.308Z,7.23
2017-10-30T02:10:02.908Z,7.26
2017-10-30T02:10:03.508Z,7.20
2017-10-30T02:10:04.109Z,7.23
2017-10-30T02:10:57.682Z,7.23
2017-10-30T02:10:58.251Z,7.22
2017-10-30T02:10:58.849Z,7.20
2017-10-30T02:10:59.453Z,7.23
2017-10-30T02:11:00.054Z,7.19
2017-10-30T02:11:00.650Z,7.19
2017-10-30T02:11:01.248Z,7.22
2017-10-30T02:11:01.851Z,7.23
2017-10-30T02:11:55.327Z,7.09
2017-10-30T02:11:55.904Z,7.17
2017-10-30T02:11:56.506Z,7.19
2017-10-30T02:11:57.106Z,7.22
2017-10-30T02:11:57.700Z,7.12
2017-10-30T02:11:58.300Z,7.20
2017-10-30T02:11:58.902Z,7.07
2017-10-30T02:11:59.500Z,7.09
2017-10-30T02:12:53.086Z,7.15
2017-10-30T02:12:53.657Z,7.12
2017-10-30T02:12:54.257Z,7.15
2017-10-30T02:12:54.854Z,7.15
2017-10-30T02:12:55.453Z,7.08
2017-10-30T02:12:56.052Z,7.12
2017-10-30T02:12:56.653Z,7.15
2017-10-30T02:12:57.259Z,7.09
2017-10-30T02:13:53.303Z,7.15
2017-10-30T02:13:53.866Z,7.16
2017-10-30T02:13:54.471Z,7.13
2017-10-30T02:13:55.086Z,7.12
2017-10-30T02:13:55.667Z,7.13
2017-10-30T02:13:56.265Z,7.07
2017-10-30T02:14:50.330Z,7.09
2017-10-30T02:14:50.907Z,7.12
2017-10-30T02:14:51.509Z,7.13
2017-10-30T02:14:52.794Z,7.07
2017-10-30T02:14:53.296Z,7.13
2017-10-30T02:14:53.899Z,7.13
2017-10-30T02:14:54.499Z,7.15
2017-10-30T02:15:47.981Z,6.99
2017-10-30T02:15:48.556Z,7.09
2017-10-30T02:15:49.155Z,7.13
2017-10-30T02:15:49.755Z,6.99
2017-10-30T02:15:50.355Z,7.12
2017-10-30T02:15:50.956Z,7.09
2017-10-30T02:15:51.555Z,7.01
2017-10-30T02:15:52.156Z,7.09
2017-10-30T02:16:45.741Z,7.01
2017-10-30T02:16:46.311Z,7.07
2017-10-30T02:16:46.912Z,7.07
2017-10-30T02:16:47.509Z,7.04
2017-10-30T02:16:48.108Z,7.07
2017-10-30T02:16:48.708Z,7.07
2017-10-30T02:16:49.308Z,7.01
2017-10-30T02:16:49.907Z,7.02
2017-10-30T02:17:43.387Z,7.05
2017-10-30T02:17:43.961Z,7.01
2017-10-30T02:17:44.560Z,7.05
2017-10-30T02:17:45.164Z,6.98
2017-10-30T02:17:45.763Z,7.01
2017-10-30T02:17:46.362Z,7.04
2017-10-30T02:17:46.959Z,6.95
2017-10-30T02:17:47.561Z,7.02
2017-10-30T02:18:41.039Z,7.05
2017-10-30T02:18:41.612Z,7.02
2017-10-30T02:18:42.211Z,7.02
2017-10-30T02:18:42.811Z,7.04
2017-10-30T02:18:43.412Z,7.04
2017-10-30T02:18:44.011Z,7.04
2017-10-30T02:18:44.611Z,7.01
2017-10-30T02:18:45.212Z,7.02
2017-10-30T02:19:38.696Z,7.04
2017-10-30T02:19:39.264Z,7.02
2017-10-30T02:19:39.884Z,7.01
2017-10-30T02:19:40.463Z,7.07
2017-10-30T02:19:41.063Z,7.07
2017-10-30T02:19:41.669Z,6.99
2017-10-30T02:19:42.264Z,7.05
2017-10-30T02:19:42.864Z,7.02
2017-10-30T02:20:37.367Z,6.94
2017-10-30T02:20:37.946Z,6.98
2017-10-30T02:20:38.539Z,7.04
2017-10-30T02:20:39.141Z,7.08
2017-10-30T02:20:39.738Z,7.04
2017-10-30T02:20:40.340Z,7.04
2017-10-30T02:20:40.938Z,7.05
2017-10-30T02:20:41.538Z,6.97
2017-10-30T02:21:35.028Z,7.05
2017-10-30T02:21:35.598Z,7.08
2017-10-30T02:21:36.194Z,7.07
2017-10-30T02:21:36.795Z,6.98
2017-10-30T02:21:37.395Z,7.02
2017-10-30T02:21:37.991Z,7.01
2017-10-30T02:21:38.591Z,7.02
2017-10-30T02:21:39.194Z,6.95
2017-10-30T02:22:32.669Z,6.90
2017-10-30T02:22:33.243Z,7.01
2017-10-30T02:22:33.843Z,7.01
2017-10-30T02:22:34.443Z,6.97
2017-10-30T02:22:35.042Z,7.02
2017-10-30T02:22:35.645Z,6.94
2017-10-30T02:22:36.245Z,6.98
2017-10-30T02:22:36.853Z,7.05
2017-10-30T02:23:30.320Z,7.04
2017-10-30T02:23:30.895Z,7.01
2017-10-30T02:23:31.495Z,7.01
2017-10-30T02:23:32.098Z,7.02
2017-10-30T02:23:32.694Z,6.95
2017-10-30T02:23:33.878Z,7.01
2017-10-30T02:23:34.386Z,7.01
2017-10-30T02:24:47.225Z,6.95
2017-10-30T02:24:47.797Z,7.01
2017-10-30T02:24:48.398Z,7.02
2017-10-30T02:24:48.998Z,6.91
2017-10-30T02:24:49.598Z,7.04
2017-10-30T02:24:50.204Z,6.99
2017-10-30T02:24:50.798Z,6.97
2017-10-30T02:24:51.398Z,7.04
2017-10-30T02:25:45.904Z,6.94
2017-10-30T02:25:46.475Z,6.97
2017-10-30T02:25:47.073Z,7.02
2017-10-30T02:25:47.673Z,6.94
2017-10-30T02:25:48.275Z,6.98
2017-10-30T02:25:48.872Z,7.02
2017-10-30T02:25:49.471Z,6.91
2017-10-30T02:25:50.075Z,6.97
2017-10-30T02:26:43.551Z,6.95
2017-10-30T02:26:44.130Z,6.91
2017-10-30T02:26:44.726Z,6.97
2017-10-30T02:26:45.325Z,6.98
2017-10-30T02:26:45.932Z,6.91
2017-10-30T02:26:46.525Z,6.94
2017-10-30T02:26:47.124Z,6.95
2017-10-30T02:26:47.726Z,6.94
2017-10-30T02:27:41.202Z,6.97
2017-10-30T02:27:41.777Z,7.05
2017-10-30T02:27:42.378Z,6.94
2017-10-30T02:27:42.980Z,6.94
2017-10-30T02:27:43.576Z,6.97
2017-10-30T02:27:44.175Z,6.95
2017-10-30T02:27:44.777Z,6.95
2017-10-30T02:27:45.379Z,6.97
2017-10-30T02:28:38.860Z,7.01
2017-10-30T02:28:39.434Z,6.97
2017-10-30T02:28:40.031Z,7.12
2017-10-30T02:28:40.631Z,6.97
2017-10-30T02:28:41.231Z,7.02
2017-10-30T02:28:41.836Z,6.95
2017-10-30T02:28:42.428Z,6.95
2017-10-30T02:28:43.035Z,6.97
2017-10-30T02:29:37.529Z,7.12
2017-10-30T02:29:38.104Z,7.05
2017-10-30T02:29:38.702Z,6.98
2017-10-30T02:29:39.309Z,7.02
2017-10-30T02:29:39.905Z,7.05
2017-10-30T02:29:40.504Z,6.97
2017-10-30T02:29:41.104Z,6.99
2017-10-30T02:29:41.707Z,7.02
2017-10-30T02:30:35.182Z,6.95
2017-10-30T02:30:35.756Z,6.99
2017-10-30T02:30:36.357Z,7.05
2017-10-30T02:30:36.956Z,7.02
2017-10-30T02:30:37.557Z,6.97
2017-10-30T02:30:38.155Z,6.95
2017-10-30T02:30:38.755Z,7.02
2017-10-30T02:30:39.354Z,7.08
2017-10-30T02:31:32.831Z,6.99
2017-10-30T02:31:33.407Z,7.05
2017-10-30T02:31:34.006Z,7.04
2017-10-30T02:31:34.607Z,6.97
2017-10-30T02:31:35.209Z,7.01
2017-10-30T02:31:35.817Z,7.09
2017-10-30T02:31:36.410Z,7.04
2017-10-30T02:31:37.014Z,7.02
2017-10-30T02:32:30.483Z,7.01
2017-10-30T02:32:31.060Z,7.08
2017-10-30T02:32:31.661Z,6.97
2017-10-30T02:32:32.259Z,6.94
2017-10-30T02:32:32.860Z,7.02
2017-10-30T02:32:33.461Z,6.95
2017-10-30T02:32:34.068Z,6.97
2017-10-30T02:32:34.661Z,7.01
2017-10-30T02:33:28.146Z,6.97
2017-10-30T02:33:28.711Z,7.05
2017-10-30T02:33:29.310Z,6.94
2017-10-30T02:33:29.915Z,6.95
2017-10-30T02:33:30.510Z,6.97
2017-10-30T02:33:31.109Z,6.94
2017-10-30T02:33:31.711Z,6.95
2017-10-30T02:50:17.690Z,6.46
2017-10-30T02:50:18.202Z,6.48
2017-10-30T02:50:18.792Z,6.43
2017-10-30T02:50:19.388Z,6.43
2017-10-30T02:50:19.995Z,6.46
2017-10-30T02:50:20.587Z,6.61
2017-10-30T02:50:21.186Z,6.48
2017-10-30T02:50:21.788Z,6.50
2017-10-30T02:51:15.249Z,6.47
2017-10-30T02:51:15.827Z,6.43
2017-10-30T02:51:16.428Z,6.47
2017-10-30T02:51:17.025Z,6.47
2017-10-30T02:51:17.625Z,6.47
2017-10-30T02:51:18.223Z,6.53
2017-10-30T02:51:18.824Z,6.56
2017-10-30T02:51:19.425Z,6.53
2017-10-30T02:52:12.915Z,6.44
2017-10-30T02:52:13.477Z,6.47
2017-10-30T02:52:14.084Z,6.46
2017-10-30T02:52:14.678Z,6.43
2017-10-30T02:52:15.277Z,6.48
2017-10-30T02:52:15.879Z,6.51
2017-10-30T02:52:16.479Z,6.51
2017-10-30T02:52:17.076Z,6.47
2017-10-30T02:53:10.564Z,6.47
2017-10-30T02:53:11.129Z,6.44
2017-10-30T02:53:11.728Z,6.46
2017-10-30T02:53:12.329Z,6.44
2017-10-30T02:53:12.929Z,6.43
2017-10-30T02:53:13.531Z,6.53
2017-10-30T02:53:14.129Z,6.43
2017-10-30T02:53:14.727Z,6.54
2017-10-30T02:54:08.212Z,6.44
2017-10-30T02:54:08.785Z,6.43
2017-10-30T02:54:09.385Z,6.48
2017-10-30T02:54:09.987Z,6.47
2017-10-30T02:54:10.585Z,6.47
2017-10-30T02:54:11.180Z,6.47
2017-10-30T02:54:11.780Z,6.40
2017-10-30T02:54:12.380Z,6.44
2017-10-30T02:55:05.868Z,6.48
2017-10-30T02:55:06.443Z,6.44
2017-10-30T02:55:07.041Z,6.51
2017-10-30T02:55:07.633Z,6.47
2017-10-30T02:55:08.243Z,6.58
2017-10-30T02:55:08.834Z,6.53
2017-10-30T02:55:09.436Z,6.47
2017-10-30T02:55:10.033Z,6.41
2017-10-30T02:56:04.024Z,6.46
2017-10-30T02:56:04.600Z,6.48
2017-10-30T02:56:05.197Z,6.53
2017-10-30T02:56:05.813Z,6.47
2017-10-30T02:56:06.398Z,6.53
2017-10-30T02:56:06.996Z,6.56
2017-10-30T02:56:07.595Z,6.44
2017-10-30T02:57:05.052Z,6.44
2017-10-30T02:57:05.627Z,6.47
2017-10-30T02:57:06.237Z,6.44
2017-10-30T02:57:59.736Z,6.43
2017-10-30T02:58:00.310Z,6.47
2017-10-30T02:58:00.914Z,6.48
2017-10-30T02:58:01.511Z,6.48
2017-10-30T02:58:02.111Z,6.56
2017-10-30T02:58:02.710Z,6.46
2017-10-30T02:58:03.310Z,6.47
2017-10-30T02:58:03.912Z,6.53
2017-10-30T02:58:58.410Z,6.51
2017-10-30T02:58:58.986Z,6.58
2017-10-30T02:58:59.585Z,6.58
2017-10-30T02:59:00.186Z,6.51
2017-10-30T02:59:00.784Z,6.59
2017-10-30T02:59:01.395Z,6.54
2017-10-30T02:59:01.993Z,6.61
2017-10-30T02:59:02.586Z,6.56
2017-10-30T02:59:56.063Z,6.51
2017-10-30T02:59:56.637Z,6.59
2017-10-30T02:59:57.239Z,6.56
2017-10-30T02:59:57.838Z,6.59
2017-10-30T02:59:58.437Z,6.56
2017-10-30T02:59:59.037Z,6.61
2017-10-30T02:59:59.638Z,6.59
2017-10-30T03:00:00.238Z,6.54
2017-10-30T03:00:54.739Z,6.58
2017-10-30T03:00:55.313Z,6.59
2017-10-30T03:00:55.915Z,6.66
2017-10-30T03:00:56.513Z,6.68
2017-10-30T03:00:57.113Z,6.68
2017-10-30T03:00:57.712Z,6.68
2017-10-30T03:00:58.313Z,6.65
2017-10-30T03:00:58.912Z,6.62
2017-10-30T03:01:53.420Z,6.66
2017-10-30T03:01:53.989Z,6.63
2017-10-30T03:01:54.592Z,6.66
2017-10-30T03:01:55.190Z,6.72
2017-10-30T03:01:55.789Z,6.66
2017-10-30T03:01:56.390Z,6.65
2017-10-30T03:01:56.987Z,6.61
2017-10-30T03:01:57.597Z,6.69
2017-10-30T03:02:51.584Z,6.65
2017-10-30T03:02:52.163Z,6.65
2017-10-30T03:02:52.762Z,6.68
2017-10-30T03:02:54.122Z,6.66
2017-10-30T03:02:54.626Z,6.69
2017-10-30T03:02:55.220Z,6.72
2017-10-30T03:03:49.229Z,6.68
2017-10-30T03:03:49.804Z,6.61
2017-10-30T03:03:50.404Z,6.68
2017-10-30T03:03:51.004Z,6.66
2017-10-30T03:03:51.602Z,6.69
2017-10-30T03:03:52.201Z,6.69
2017-10-30T03:03:52.802Z,6.65
2017-10-30T03:04:46.372Z,6.65
2017-10-30T03:04:46.946Z,6.66
2017-10-30T03:04:47.550Z,6.68
2017-10-30T03:04:48.144Z,6.72
2017-10-30T03:04:48.744Z,6.66
2017-10-30T03:04:49.346Z,6.71
2017-10-30T03:04:49.944Z,6.65
2017-10-30T03:04:50.549Z,6.71
2017-10-30T03:05:45.046Z,6.63
2017-10-30T03:05:45.620Z,6.69
2017-10-30T03:05:46.233Z,6.73
2017-10-30T03:05:46.825Z,6.72
2017-10-30T03:05:47.420Z,6.69
2017-10-30T03:05:48.017Z,6.66
2017-10-30T03:05:48.617Z,6.73
2017-10-30T03:05:49.221Z,6.80
2017-10-30T03:06:43.723Z,6.72
2017-10-30T03:06:44.295Z,6.66
2017-10-30T03:06:44.902Z,6.83
2017-10-30T03:06:45.496Z,6.73
2017-10-30T03:06:46.099Z,6.68
2017-10-30T03:06:46.697Z,6.71
2017-10-30T03:06:47.296Z,6.72
2017-10-30T03:06:47.898Z,6.76
2017-10-30T03:07:41.372Z,6.71
2017-10-30T03:07:41.952Z,6.76
2017-10-30T03:07:42.551Z,6.72
2017-10-30T03:07:43.156Z,6.80
2017-10-30T03:07:43.750Z,6.72
2017-10-30T03:07:44.348Z,6.77
2017-10-30T03:07:44.948Z,6.76
2017-10-30T03:07:45.548Z,6.71
2017-10-30T03:08:40.052Z,6.71
2017-10-30T03:08:40.623Z,6.68
2017-10-30T03:08:41.222Z,6.77
2017-10-30T03:08:41.822Z,6.71
2017-10-30T03:08:42.423Z,6.72
2017-10-30T03:08:43.030Z,6.72
2017-10-30T03:08:43.622Z,6.77
2017-10-30T03:08:44.222Z,6.71
2017-10-30T03:09:38.723Z,6.66
2017-10-30T03:09:39.302Z,6.71
2017-10-30T03:09:39.898Z,6.73
2017-10-30T03:09:40.497Z,6.69
2017-10-30T03:09:41.097Z,6.66
2017-10-30T03:09:41.696Z,6.71
2017-10-30T03:09:42.297Z,6.68
2017-10-30T03:09:42.902Z,6.69
2017-10-30T03:10:36.378Z,6.73
2017-10-30T03:10:36.951Z,6.73
2017-10-30T03:10:37.551Z,6.76
2017-10-30T03:10:38.154Z,6.77
2017-10-30T03:10:38.749Z,6.79
2017-10-30T03:10:39.350Z,6.76
2017-10-30T03:10:39.953Z,6.81
2017-10-30T03:10:40.551Z,6.79
2017-10-30T03:11:34.028Z,6.72
2017-10-30T03:11:34.603Z,6.73
2017-10-30T03:11:35.204Z,6.80
2017-10-30T03:11:35.809Z,6.84
2017-10-30T03:11:36.405Z,6.71
2017-10-30T03:11:37.001Z,6.84
2017-10-30T03:11:37.606Z,6.77
2017-10-30T03:11:38.202Z,6.89
2017-10-30T03:12:32.709Z,6.80
2017-10-30T03:12:33.277Z,6.89
2017-10-30T03:12:33.875Z,6.84
2017-10-30T03:12:34.476Z,6.81
2017-10-30T03:12:35.082Z,6.84
2017-10-30T03:12:35.682Z,6.90
2017-10-30T03:12:36.279Z,6.87
2017-10-30T03:12:36.879Z,6.83
2017-10-30T03:13:31.378Z,6.84
2017-10-30T03:13:31.955Z,6.86
2017-10-30T03:13:32.554Z,6.83
2017-10-30T03:13:33.153Z,6.89
2017-10-30T03:13:33.753Z,6.80
2017-10-30T03:13:34.354Z,6.86
2017-10-30T03:13:34.954Z,6.90
2017-10-30T03:13:35.558Z,6.89
2017-10-30T03:14:29.036Z,6.81
2017-10-30T03:14:29.604Z,6.86
2017-10-30T03:14:30.204Z,6.90
2017-10-30T03:14:30.806Z,6.84
2017-10-30T03:14:31.404Z,6.81
2017-10-30T03:14:32.009Z,6.91
2017-10-30T03:14:32.604Z,6.91
2017-10-30T03:14:33.204Z,6.80
2017-10-30T03:15:26.684Z,6.80
2017-10-30T03:15:27.257Z,6.80
2017-10-30T03:15:27.857Z,6.83
2017-10-30T03:15:28.461Z,6.84
2017-10-30T03:15:29.061Z,6.86
2017-10-30T03:15:29.656Z,6.89
2017-10-30T03:15:30.258Z,6.89
2017-10-30T03:15:30.861Z,6.89
2017-10-30T03:16:24.338Z,6.73
2017-10-30T03:16:24.910Z,6.77
2017-10-30T03:16:25.512Z,6.86
2017-10-30T03:16:26.113Z,6.86
2017-10-30T03:16:26.710Z,6.71
2017-10-30T03:16:27.317Z,6.84
2017-10-30T03:16:27.909Z,6.81
2017-10-30T03:16:28.512Z,6.73
2017-10-30T03:17:22.094Z,6.73
2017-10-30T03:17:22.669Z,6.73
2017-10-30T03:17:23.266Z,6.83
2017-10-30T03:17:23.904Z,6.84
2017-10-30T03:17:25.037Z,6.72
2017-10-30T03:17:25.542Z,6.86
2017-10-30T03:17:26.145Z,6.86
2017-10-30T03:18:19.646Z,6.83
2017-10-30T03:18:20.217Z,6.72
2017-10-30T03:18:20.812Z,6.86
2017-10-30T03:18:21.439Z,6.80
2017-10-30T03:18:22.011Z,6.84
2017-10-30T03:18:22.611Z,6.86
2017-10-30T03:18:23.215Z,6.80
2017-10-30T03:18:23.810Z,6.72
2017-10-30T03:19:17.800Z,6.86
2017-10-30T03:19:18.378Z,6.84
2017-10-30T03:19:18.974Z,6.90
2017-10-30T03:19:19.574Z,6.81
2017-10-30T03:19:20.180Z,6.84
2017-10-30T03:19:20.773Z,6.83
2017-10-30T03:19:21.376Z,6.90
2017-10-30T03:20:15.860Z,6.84
2017-10-30T03:20:16.436Z,6.91
2017-10-30T03:20:17.036Z,6.87
2017-10-30T03:20:17.636Z,6.83
2017-10-30T03:20:18.235Z,6.81
2017-10-30T03:20:18.834Z,6.83
2017-10-30T03:20:19.435Z,6.90
2017-10-30T03:20:20.035Z,6.86
2017-10-30T03:21:13.514Z,6.76
2017-10-30T03:21:14.088Z,6.81
2017-10-30T03:21:14.689Z,6.87
2017-10-30T03:21:15.290Z,6.89
2017-10-30T03:21:15.907Z,6.94
2017-10-30T03:21:16.487Z,6.77
2017-10-30T03:21:17.089Z,6.87
2017-10-30T03:21:17.686Z,6.86
2017-10-30T03:22:11.167Z,6.80
2017-10-30T03:22:11.739Z,6.72
2017-10-30T03:22:12.339Z,6.72
2017-10-30T03:22:12.941Z,6.84
2017-10-30T03:22:13.546Z,6.72
2017-10-30T03:22:14.143Z,6.81
2017-10-30T03:22:14.738Z,6.84
2017-10-30T03:22:15.338Z,6.73
2017-10-30T03:23:08.822Z,6.72
2017-10-30T03:23:09.393Z,6.72
2017-10-30T03:23:09.992Z,6.72
2017-10-30T03:23:10.592Z,6.76
2017-10-30T03:23:11.193Z,6.73
2017-10-30T03:23:11.792Z,6.73
2017-10-30T03:23:12.391Z,6.71
2017-10-30T03:23:12.992Z,6.72
2017-10-30T03:24:06.469Z,6.68
2017-10-30T03:24:07.047Z,6.68
2017-10-30T03:24:07.643Z,6.71
2017-10-30T03:24:08.243Z,6.73
2017-10-30T03:24:08.843Z,6.72
2017-10-30T03:24:09.442Z,6.77
2017-10-30T03:24:10.042Z,6.72
2017-10-30T03:24:10.641Z,6.73
2017-10-30T03:25:04.121Z,6.69
2017-10-30T03:25:04.695Z,6.69
2017-10-30T03:25:05.295Z,6.68
2017-10-30T03:25:05.894Z,6.73
2017-10-30T03:25:06.494Z,6.69
2017-10-30T03:25:07.094Z,6.71
2017-10-30T03:25:07.694Z,6.76
2017-10-30T03:25:08.295Z,6.79
2017-10-30T03:26:01.771Z,6.68
2017-10-30T03:26:02.347Z,6.69
2017-10-30T03:26:02.945Z,6.72
2017-10-30T03:26:03.546Z,6.73
2017-10-30T03:26:04.147Z,6.68
2017-10-30T03:26:04.746Z,6.72
2017-10-30T03:26:05.353Z,6.73
2017-10-30T03:26:05.950Z,6.76
2017-10-30T03:26:59.421Z,6.72
2017-10-30T03:26:59.998Z,6.63
2017-10-30T03:27:00.598Z,6.66
2017-10-30T03:27:01.202Z,6.71
2017-10-30T03:27:01.804Z,6.69
2017-10-30T03:27:02.397Z,6.65
2017-10-30T03:27:02.998Z,6.68
2017-10-30T03:27:03.598Z,6.68
2017-10-30T03:27:57.075Z,6.69
2017-10-30T03:27:57.653Z,6.68
2017-10-30T03:27:58.261Z,6.76
2017-10-30T03:27:58.857Z,6.76
2017-10-30T03:27:59.453Z,6.72
2017-10-30T03:28:00.052Z,6.76
2017-10-30T03:28:00.647Z,6.65
2017-10-30T03:28:01.248Z,6.71
2017-10-30T03:28:54.726Z,6.69
2017-10-30T03:28:55.301Z,6.69
2017-10-30T03:28:55.902Z,6.71
2017-10-30T03:28:56.501Z,6.71
2017-10-30T03:28:57.101Z,6.66
2017-10-30T03:28:57.699Z,6.71
2017-10-30T03:28:58.301Z,6.69
2017-10-30T03:28:58.901Z,6.73
2017-10-30T03:29:52.378Z,6.68
2017-10-30T03:29:52.953Z,6.71
2017-10-30T03:29:53.553Z,6.65
2017-10-30T03:29:54.153Z,6.73
2017-10-30T03:29:54.753Z,6.76
2017-10-30T03:29:55.353Z,6.69
2017-10-30T03:29:55.952Z,6.68
2017-10-30T03:29:56.551Z,6.66
2017-10-30T03:30:50.030Z,6.79
2017-10-30T03:30:50.605Z,6.71
2017-10-30T03:30:51.205Z,6.66
2017-10-30T03:30:51.808Z,6.73
2017-10-30T03:30:52.405Z,6.68
2017-10-30T03:30:53.004Z,6.72
2017-10-30T03:30:53.604Z,6.68
2017-10-30T03:30:54.210Z,6.68
2017-10-30T03:31:47.681Z,6.69
2017-10-30T03:31:48.255Z,6.76
2017-10-30T03:31:48.858Z,6.69
2017-10-30T03:31:49.454Z,6.72
2017-10-30T03:31:50.055Z,6.65